Sioux Arrow — WAG6168 — position and weather

sailwx.info

Track history (hours):
 
Tides and Currents Weather Stations Pressure Air Temp Water Temp Dewpoint Dewpoint Depression Visibility Wind Speed Wind Dir Waves Ship Positions

Sioux Arrow

Owner: HARMON, JACK L, PORT ANGELES, WA. More information available from US FCC via Universal Licensing System and Coast Guard Vessel Documentation Center.

Last reported at 2014-Oct-31 06:34 UTC. Time now 2014-Oct-31 07:02 UTC.
Position N 48°31' W 122°36'.

Type: Port tender. MMSI: 366973370.

Date/timePositionNaut miles runAvg speedWind from/ knotsBaromVisibWave heightAir tempDewpointWater temp
2014-Oct-31 06:34N 48°31' W 122°36'0 0.0
2014-Oct-31 05:34N 48°31' W 122°36'0 0.0
2014-Oct-31 04:34N 48°31' W 122°36'1 1.2
2014-Oct-31 03:33N 48°31' W 122°35'1 1.2
2014-Oct-31 02:33N 48°31' W 122°36'0 0.1
2014-Oct-31 01:33N 48°31' W 122°36'0 0.1
2014-Oct-31 00:33N 48°31' W 122°36'1 1.1
2014-Oct-30 23:33N 48°31' W 122°35'1 1.1
2014-Oct-30 22:33N 48°31' W 122°36'1 1.0
2014-Oct-30 21:33N 48°31' W 122°35'1 1.0
2014-Oct-30 20:33N 48°31' W 122°36'1 0.6
2014-Oct-30 19:33N 48°31' W 122°36'0 0.4
2014-Oct-30 18:34N 48°31' W 122°36'0 0.2
2014-Oct-30 17:33N 48°31' W 122°36'1 1.4
2014-Oct-30 16:33N 48°31' W 122°35'1 0.8
2014-Oct-30 15:33N 48°31' W 122°35'1 0.6
2014-Oct-30 14:33N 48°31' W 122°36'0 0.0
2014-Oct-30 03:10N 48°31' W 122°36'1 1.4
2014-Oct-30 02:33N 48°31' W 122°35'1 0.9
2014-Oct-30 01:33N 48°31' W 122°36'5 5.1
2014-Oct-30 00:33N 48°35' W 122°33'5 5.0
2014-Oct-29 23:34N 48°31' W 122°37'0 0.1
2014-Oct-29 22:34N 48°31' W 122°36'0 0.0
2014-Oct-29 21:34N 48°31' W 122°36'2 1.9
2014-Oct-29 20:33N 48°31' W 122°34'0 0.4
2014-Oct-29 19:33N 48°31' W 122°34'1 0.8
2014-Oct-29 18:33N 48°32' W 122°34'1 0.8
2014-Oct-29 17:33N 48°31' W 122°34'3 2.9
2014-Oct-29 16:32N 48°34' W 122°34'4 3.9
2014-Oct-29 15:34N 48°31' W 122°36'0 0.0
2014-Oct-29 14:33N 48°31' W 122°36'0 0.0
2014-Oct-29 09:17N 48°31' W 122°36'1 1.3
2014-Oct-29 08:33N 48°31' W 122°35'1 0.1
2014-Oct-28 23:13N 48°31' W 122°36'0 0.1
2014-Oct-28 22:33N 48°31' W 122°37'1 0.6
2014-Oct-28 21:33N 48°31' W 122°36'1 0.5
2014-Oct-28 20:34N 48°31' W 122°36'0 0.0
2014-Oct-28 19:33N 48°31' W 122°36'0 0.0
2014-Oct-28 18:33N 48°31' W 122°36'0 0.0
2014-Oct-28 17:33N 48°31' W 122°36'0 0.0
2014-Oct-28 16:23N 48°31' W 122°36'2 2.5
2014-Oct-28 15:33N 48°32' W 122°34'2 0.2
2014-Oct-28 05:33N 48°31' W 122°36'1 0.7
2014-Oct-28 04:34N 48°31' W 122°37'0 0.0
2014-Oct-28 01:17N 48°31' W 122°36'3 3.9
2014-Oct-28 00:33N 48°33' W 122°34'2 0.4
2014-Oct-27 20:33N 48°35' W 122°34'4 4.4
2014-Oct-27 19:34N 48°31' W 122°36'0 0.0
2014-Oct-27 18:33N 48°31' W 122°36'0 0.0
2014-Oct-27 17:34N 48°31' W 122°36'0 0.0
2014-Oct-27 16:34N 48°31' W 122°36'5 5.4
2014-Oct-27 15:33N 48°35' W 122°33'5 5.4
2014-Oct-27 14:33N 48°31' W 122°37'0 0.0
2014-Oct-27 09:06N 48°31' W 122°36'611.2
2014-Oct-27 08:33N 48°36' W 122°33'6 6.1
2014-Oct-27 07:33N 48°31' W 122°36'0 0.0
2014-Oct-27 06:33N 48°31' W 122°36'0 0.0
2014-Oct-27 05:33N 48°31' W 122°36'0 0.0
2014-Oct-27 04:33N 48°31' W 122°36'0 0.0
2014-Oct-27 03:33N 48°31' W 122°36'0 0.0
2014-Oct-27 02:33N 48°31' W 122°36'1 0.9
2014-Oct-27 01:33N 48°31' W 122°35'1 0.9
2014-Oct-27 00:33N 48°31' W 122°36'0 0.0
2014-Oct-26 23:33N 48°31' W 122°36'0 0.0
2014-Oct-26 22:33N 48°31' W 122°36'0 0.0
2014-Oct-26 21:33N 48°31' W 122°36'0 0.0
2014-Oct-26 20:33N 48°31' W 122°36'0 0.0
2014-Oct-26 19:33N 48°31' W 122°36'0 0.0
2014-Oct-26 18:33N 48°31' W 122°36'0 0.0
2014-Oct-26 17:33N 48°31' W 122°37'5 5.0
2014-Oct-26 16:33N 48°35' W 122°34'4 4.4
2014-Oct-26 15:33N 48°31' W 122°36'1 0.6
2014-Oct-26 14:33N 48°31' W 122°36'0 0.0
2014-Oct-26 05:12N 48°31' W 122°36'0 0.0
2014-Oct-26 04:33N 48°31' W 122°36'0 0.0
2014-Oct-26 03:33N 48°31' W 122°36'0 0.4
2014-Oct-26 02:33N 48°31' W 122°36'1 0.7
2014-Oct-26 01:33N 48°31' W 122°35'1 1.0
2014-Oct-26 00:33N 48°31' W 122°36'0 0.0
2014-Oct-25 23:33N 48°31' W 122°36'0 0.0
2014-Oct-25 22:33N 48°31' W 122°36'5 5.3
2014-Oct-25 21:33N 48°35' W 122°32'5 5.4
2014-Oct-25 20:33N 48°31' W 122°36'0 0.4
2014-Oct-25 19:33N 48°31' W 122°36'0 0.4
2014-Oct-25 18:33N 48°31' W 122°36'0 0.0
2014-Oct-25 17:33N 48°31' W 122°36'0 0.0
2014-Oct-25 16:33N 48°31' W 122°36'0 0.0
2014-Oct-25 15:33N 48°31' W 122°36'0 0.3
2014-Oct-25 14:33N 48°31' W 122°36'0 0.0
2014-Oct-25 05:25N 48°31' W 122°36'0 0.0
2014-Oct-25 04:33N 48°31' W 122°36'0 0.0
2014-Oct-25 03:33N 48°31' W 122°36'0 0.2
2014-Oct-25 02:33N 48°31' W 122°36'0 0.0
2014-Oct-25 01:33N 48°31' W 122°36'0 0.2
2014-Oct-25 00:33N 48°31' W 122°36'1 1.0
2014-Oct-24 23:33N 48°31' W 122°35'1 0.8
2014-Oct-24 22:33N 48°31' W 122°36'0 0.0
2014-Oct-24 18:30N 48°31' W 122°36'3 3.4
2014-Oct-24 17:33N 48°34' W 122°34'3 3.2
2014-Oct-24 16:33N 48°31' W 122°36'1 1.2
2014-Oct-24 15:33N 48°31' W 122°35'0 0.0
2014-Oct-24 00:33N 48°31' W 122°35'3 3.3
2014-Oct-23 23:33N 48°34' W 122°34'3 2.8
2014-Oct-23 22:33N 48°31' W 122°35'4 4.1
2014-Oct-23 21:33N 48°35' W 122°33'5 4.5
2014-Oct-23 20:33N 48°31' W 122°35'1 1.0
2014-Oct-23 19:33N 48°31' W 122°37'0 0.0
2014-Oct-23 18:33N 48°31' W 122°37'0 0.0
2014-Oct-23 17:33N 48°31' W 122°36'0 0.0
2014-Oct-23 16:33N 48°31' W 122°36'0 0.0
2014-Oct-23 14:21N 48°31' W 122°36'0 0.0
2014-Oct-23 13:33N 48°31' W 122°36'0 0.0
2014-Oct-23 09:29N 48°31' W 122°36'2 1.9
2014-Oct-23 08:33N 48°32' W 122°34'2 0.7
2014-Oct-23 06:13N 48°31' W 122°36'6 8.7
2014-Oct-23 05:33N 48°36' W 122°34'6 5.7
2014-Oct-23 04:33N 48°31' W 122°36'0 0.0
2014-Oct-23 03:33N 48°31' W 122°36'0 0.0
2014-Oct-23 02:33N 48°31' W 122°36'6 5.6
2014-Oct-23 01:33N 48°36' W 122°34'6 5.6
2014-Oct-23 00:34N 48°31' W 122°36'0 0.0
2014-Oct-22 23:34N 48°31' W 122°36'0 0.0
2014-Oct-22 22:34N 48°31' W 122°36'6 1.6
2014-Oct-22 19:04N 48°35' W 122°32'2 0.3
2014-Oct-22 14:10N 48°36' W 122°34'6 0.4
2014-Oct-21 22:14N 48°31' W 122°37'1 0.8
2014-Oct-21 21:33N 48°31' W 122°36'1 0.5
2014-Oct-21 20:33N 48°31' W 122°36'2 0.5
2014-Oct-21 16:33N 48°32' W 122°34'  
Track history (hours):
 
Tides and Currents Weather Stations Pressure Air Temp Water Temp Dewpoint Dewpoint Depression Visibility Wind Speed Wind Dir Waves Ship Positions

Sioux Arrow

Owner: HARMON, JACK L, PORT ANGELES, WA. More information available from US FCC via Universal Licensing System and Coast Guard Vessel Documentation Center.

Last reported at 2014-Oct-31 06:34 UTC. Time now 2014-Oct-31 07:02 UTC.
Position N 48°31' W 122°36'.

Type: Port tender. MMSI: 366973370.

Date/timePositionNaut miles runAvg speedWind from/ knotsBaromVisibWave heightAir tempDewpointWater temp
2014-Oct-31 06:34N 48°31' W 122°36'0 0.0
2014-Oct-31 05:34N 48°31' W 122°36'0 0.0
2014-Oct-31 04:34N 48°31' W 122°36'1 1.2
2014-Oct-31 03:33N 48°31' W 122°35'1 1.2
2014-Oct-31 02:33N 48°31' W 122°36'0 0.1
2014-Oct-31 01:33N 48°31' W 122°36'0 0.1
2014-Oct-31 00:33N 48°31' W 122°36'1 1.1
2014-Oct-30 23:33N 48°31' W 122°35'1 1.1
2014-Oct-30 22:33N 48°31' W 122°36'1 1.0
2014-Oct-30 21:33N 48°31' W 122°35'1 1.0
2014-Oct-30 20:33N 48°31' W 122°36'1 0.6
2014-Oct-30 19:33N 48°31' W 122°36'0 0.4
2014-Oct-30 18:34N 48°31' W 122°36'0 0.2
2014-Oct-30 17:33N 48°31' W 122°36'1 1.4
2014-Oct-30 16:33N 48°31' W 122°35'1 0.8
2014-Oct-30 15:33N 48°31' W 122°35'1 0.6
2014-Oct-30 14:33N 48°31' W 122°36'0 0.0
2014-Oct-30 03:10N 48°31' W 122°36'1 1.4
2014-Oct-30 02:33N 48°31' W 122°35'1 0.9
2014-Oct-30 01:33N 48°31' W 122°36'5 5.1
2014-Oct-30 00:33N 48°35' W 122°33'5 5.0
2014-Oct-29 23:34N 48°31' W 122°37'0 0.1
2014-Oct-29 22:34N 48°31' W 122°36'0 0.0
2014-Oct-29 21:34N 48°31' W 122°36'2 1.9
2014-Oct-29 20:33N 48°31' W 122°34'0 0.4
2014-Oct-29 19:33N 48°31' W 122°34'1 0.8
2014-Oct-29 18:33N 48°32' W 122°34'1 0.8
2014-Oct-29 17:33N 48°31' W 122°34'3 2.9
2014-Oct-29 16:32N 48°34' W 122°34'4 3.9
2014-Oct-29 15:34N 48°31' W 122°36'0 0.0
2014-Oct-29 14:33N 48°31' W 122°36'0 0.0
2014-Oct-29 09:17N 48°31' W 122°36'1 1.3
2014-Oct-29 08:33N 48°31' W 122°35'1 0.1
2014-Oct-28 23:13N 48°31' W 122°36'0 0.1
2014-Oct-28 22:33N 48°31' W 122°37'1 0.6
2014-Oct-28 21:33N 48°31' W 122°36'1 0.5
2014-Oct-28 20:34N 48°31' W 122°36'0 0.0
2014-Oct-28 19:33N 48°31' W 122°36'0 0.0
2014-Oct-28 18:33N 48°31' W 122°36'0 0.0
2014-Oct-28 17:33N 48°31' W 122°36'0 0.0
2014-Oct-28 16:23N 48°31' W 122°36'2 2.5
2014-Oct-28 15:33N 48°32' W 122°34'2 0.2
2014-Oct-28 05:33N 48°31' W 122°36'1 0.7
2014-Oct-28 04:34N 48°31' W 122°37'0 0.0
2014-Oct-28 01:17N 48°31' W 122°36'3 3.9
2014-Oct-28 00:33N 48°33' W 122°34'2 0.4
2014-Oct-27 20:33N 48°35' W 122°34'4 4.4
2014-Oct-27 19:34N 48°31' W 122°36'0 0.0
2014-Oct-27 18:33N 48°31' W 122°36'0 0.0
2014-Oct-27 17:34N 48°31' W 122°36'0 0.0
2014-Oct-27 16:34N 48°31' W 122°36'5 5.4
2014-Oct-27 15:33N 48°35' W 122°33'5 5.4
2014-Oct-27 14:33N 48°31' W 122°37'0 0.0
2014-Oct-27 09:06N 48°31' W 122°36'611.2
2014-Oct-27 08:33N 48°36' W 122°33'6 6.1
2014-Oct-27 07:33N 48°31' W 122°36'0 0.0
2014-Oct-27 06:33N 48°31' W 122°36'0 0.0
2014-Oct-27 05:33N 48°31' W 122°36'0 0.0
2014-Oct-27 04:33N 48°31' W 122°36'0 0.0
2014-Oct-27 03:33N 48°31' W 122°36'0 0.0
2014-Oct-27 02:33N 48°31' W 122°36'1 0.9
2014-Oct-27 01:33N 48°31' W 122°35'1 0.9
2014-Oct-27 00:33N 48°31' W 122°36'0 0.0
2014-Oct-26 23:33N 48°31' W 122°36'0 0.0
2014-Oct-26 22:33N 48°31' W 122°36'0 0.0
2014-Oct-26 21:33N 48°31' W 122°36'0 0.0
2014-Oct-26 20:33N 48°31' W 122°36'0 0.0
2014-Oct-26 19:33N 48°31' W 122°36'0 0.0
2014-Oct-26 18:33N 48°31' W 122°36'0 0.0
2014-Oct-26 17:33N 48°31' W 122°37'5 5.0
2014-Oct-26 16:33N 48°35' W 122°34'4 4.4
2014-Oct-26 15:33N 48°31' W 122°36'1 0.6
2014-Oct-26 14:33N 48°31' W 122°36'0 0.0
2014-Oct-26 05:12N 48°31' W 122°36'0 0.0
2014-Oct-26 04:33N 48°31' W 122°36'0 0.0
2014-Oct-26 03:33N 48°31' W 122°36'0 0.4
2014-Oct-26 02:33N 48°31' W 122°36'1 0.7
2014-Oct-26 01:33N 48°31' W 122°35'1 1.0
2014-Oct-26 00:33N 48°31' W 122°36'0 0.0
2014-Oct-25 23:33N 48°31' W 122°36'0 0.0
2014-Oct-25 22:33N 48°31' W 122°36'5 5.3
2014-Oct-25 21:33N 48°35' W 122°32'5 5.4
2014-Oct-25 20:33N 48°31' W 122°36'0 0.4
2014-Oct-25 19:33N 48°31' W 122°36'0 0.4
2014-Oct-25 18:33N 48°31' W 122°36'0 0.0
2014-Oct-25 17:33N 48°31' W 122°36'0 0.0
2014-Oct-25 16:33N 48°31' W 122°36'0 0.0
2014-Oct-25 15:33N 48°31' W 122°36'0 0.3
2014-Oct-25 14:33N 48°31' W 122°36'0 0.0
2014-Oct-25 05:25N 48°31' W 122°36'0 0.0
2014-Oct-25 04:33N 48°31' W 122°36'0 0.0
2014-Oct-25 03:33N 48°31' W 122°36'0 0.2
2014-Oct-25 02:33N 48°31' W 122°36'0 0.0
2014-Oct-25 01:33N 48°31' W 122°36'0 0.2
2014-Oct-25 00:33N 48°31' W 122°36'1 1.0
2014-Oct-24 23:33N 48°31' W 122°35'1 0.8
2014-Oct-24 22:33N 48°31' W 122°36'0 0.0
2014-Oct-24 18:30N 48°31' W 122°36'3 3.4
2014-Oct-24 17:33N 48°34' W 122°34'3 3.2
2014-Oct-24 16:33N 48°31' W 122°36'1 1.2
2014-Oct-24 15:33N 48°31' W 122°35'0 0.0
2014-Oct-24 00:33N 48°31' W 122°35'3 3.3
2014-Oct-23 23:33N 48°34' W 122°34'3 2.8
2014-Oct-23 22:33N 48°31' W 122°35'4 4.1
2014-Oct-23 21:33N 48°35' W 122°33'5 4.5
2014-Oct-23 20:33N 48°31' W 122°35'1 1.0
2014-Oct-23 19:33N 48°31' W 122°37'0 0.0
2014-Oct-23 18:33N 48°31' W 122°37'0 0.0
2014-Oct-23 17:33N 48°31' W 122°36'0 0.0
2014-Oct-23 16:33N 48°31' W 122°36'0 0.0
2014-Oct-23 14:21N 48°31' W 122°36'0 0.0
2014-Oct-23 13:33N 48°31' W 122°36'0 0.0
2014-Oct-23 09:29N 48°31' W 122°36'2 1.9
2014-Oct-23 08:33N 48°32' W 122°34'2 0.7
2014-Oct-23 06:13N 48°31' W 122°36'6 8.7
2014-Oct-23 05:33N 48°36' W 122°34'6 5.7
2014-Oct-23 04:33N 48°31' W 122°36'0 0.0
2014-Oct-23 03:33N 48°31' W 122°36'0 0.0
2014-Oct-23 02:33N 48°31' W 122°36'6 5.6
2014-Oct-23 01:33N 48°36' W 122°34'6 5.6
2014-Oct-23 00:34N 48°31' W 122°36'0 0.0
2014-Oct-22 23:34N 48°31' W 122°36'0 0.0
2014-Oct-22 22:34N 48°31' W 122°36'6 1.6
2014-Oct-22 19:04N 48°35' W 122°32'2 0.3
2014-Oct-22 14:10N 48°36' W 122°34'6 0.4
2014-Oct-21 22:14N 48°31' W 122°37'1 0.8
2014-Oct-21 21:33N 48°31' W 122°36'1 0.5
2014-Oct-21 20:33N 48°31' W 122°36'2 0.5
2014-Oct-21 16:33N 48°32' W 122°34'  

Dump ship's entire track history